AAL617 KCLT-KLAX
Flight info
| Callsign | AAL617 |
|---|---|
| Flight time | 4h 39m |
| Altitude | 36000 |
| Route | BOBZY5 BNA LIT J14 IRW/N0484F380 J6 DRK J231 HIPPI GABBL HLYWD1 |
| Aircraft | B77W/H-SDE1E2E3FGHIJ2J3J4J5M1RWXY/LB1D1 |
Departure
| Time | 2026-04-19 23:09 |
|---|---|
| Airport | Charlotte Douglas International Airport (KCLT) |
Arrival
| Time | 2026-04-20 03:49 |
|---|---|
| Airport | Los Angeles International Airport (KLAX) |
| Time | Latitude | Longitude | Altitude | Speed | Heading |
|---|---|---|---|---|---|
| 2026-04-19 22:18 | 35.22122 | -80.93891 | 764 ft | 0 kts | 232° |
| 2026-04-19 22:53 | 35.22123 | -80.93891 | 764 ft | 1 kts | 232° |
| 2026-04-19 22:53 | 35.22131 | -80.93878 | 764 ft | 2 kts | 232° |
| 2026-04-19 22:53 | 35.22137 | -80.93868 | 764 ft | 2 kts | 232° |
| 2026-04-19 22:54 | 35.22151 | -80.93854 | 764 ft | 2 kts | 199° |
| 2026-04-19 22:54 | 35.22169 | -80.93851 | 764 ft | 2 kts | 169° |
| 2026-04-19 22:54 | 35.22186 | -80.93859 | 764 ft | 2 kts | 140° |
| 2026-04-19 22:54 | 35.22197 | -80.93877 | 764 ft | 2 kts | 111° |
| 2026-04-19 22:55 | 35.22200 | -80.93890 | 764 ft | 1 kts | 92° |
| 2026-04-19 22:55 | 35.22200 | -80.93893 | 764 ft | 0 kts | 92° |
| 2026-04-19 22:57 | 35.22200 | -80.93881 | 764 ft | 2 kts | 92° |
| 2026-04-19 22:58 | 35.22199 | -80.93858 | 764 ft | 4 kts | 92° |
| 2026-04-19 22:58 | 35.22190 | -80.93823 | 764 ft | 5 kts | 125° |
| 2026-04-19 22:58 | 35.22134 | -80.93806 | 764 ft | 14 kts | 175° |
| 2026-04-19 22:58 | 35.22022 | -80.93803 | 764 ft | 16 kts | 197° |
| 2026-04-19 22:59 | 35.21953 | -80.93868 | 764 ft | 12 kts | 224° |
| 2026-04-19 22:59 | 35.21896 | -80.93933 | 764 ft | 11 kts | 214° |
| 2026-04-19 22:59 | 35.21831 | -80.93964 | 764 ft | 11 kts | 187° |
| 2026-04-19 22:59 | 35.21759 | -80.93928 | 764 ft | 14 kts | 143° |
| 2026-04-19 23:00 | 35.21685 | -80.93919 | 764 ft | 12 kts | 220° |
| 2026-04-19 23:00 | 35.21625 | -80.93992 | 764 ft | 14 kts | 229° |
| 2026-04-19 23:00 | 35.21555 | -80.94089 | 764 ft | 17 kts | 229° |
| 2026-04-19 23:00 | 35.21471 | -80.94205 | 764 ft | 19 kts | 229° |
| 2026-04-19 23:01 | 35.21382 | -80.94327 | 764 ft | 21 kts | 229° |
| 2026-04-19 23:01 | 35.21286 | -80.94459 | 764 ft | 23 kts | 228° |
| 2026-04-19 23:01 | 35.21191 | -80.94589 | 764 ft | 21 kts | 229° |
| 2026-04-19 23:01 | 35.21102 | -80.94714 | 764 ft | 19 kts | 229° |
| 2026-04-19 23:02 | 35.21023 | -80.94820 | 764 ft | 17 kts | 228° |
| 2026-04-19 23:02 | 35.20950 | -80.94918 | 764 ft | 16 kts | 227° |
| 2026-04-19 23:02 | 35.20861 | -80.94954 | 764 ft | 14 kts | 177° |
| 2026-04-19 23:02 | 35.20768 | -80.94946 | 764 ft | 13 kts | 175° |
| 2026-04-19 23:03 | 35.20681 | -80.94939 | 764 ft | 13 kts | 175° |
| 2026-04-19 23:03 | 35.20585 | -80.94930 | 764 ft | 16 kts | 176° |
| 2026-04-19 23:03 | 35.20457 | -80.94920 | 764 ft | 22 kts | 176° |
| 2026-04-19 23:03 | 35.20315 | -80.94907 | 764 ft | 14 kts | 175° |
| 2026-04-19 23:04 | 35.20228 | -80.94899 | 764 ft | 13 kts | 175° |
| 2026-04-19 23:04 | 35.20178 | -80.94895 | 764 ft | 0 kts | 176° |
| 2026-04-19 23:04 | 35.20177 | -80.94895 | 764 ft | 0 kts | 176° |
| 2026-04-19 23:04 | 35.20163 | -80.94894 | 764 ft | 3 kts | 176° |
| 2026-04-19 23:05 | 35.20134 | -80.94892 | 764 ft | 4 kts | 176° |
| 2026-04-19 23:05 | 35.20105 | -80.94889 | 764 ft | 4 kts | 176° |
| 2026-04-19 23:05 | 35.20094 | -80.94888 | 764 ft | 0 kts | 176° |
| 2026-04-19 23:07 | 35.20093 | -80.94888 | 764 ft | 1 kts | 176° |
| 2026-04-19 23:07 | 35.20060 | -80.94891 | 764 ft | 8 kts | 196° |
| 2026-04-19 23:07 | 35.20020 | -80.94961 | 764 ft | 12 kts | 264° |
| 2026-04-19 23:07 | 35.20016 | -80.95055 | 764 ft | 10 kts | 285° |
| 2026-04-19 23:08 | 35.20052 | -80.95085 | 764 ft | 0 kts | 355° |
| 2026-04-19 23:08 | 35.20119 | -80.95091 | 764 ft | 35 kts | 355° |
| 2026-04-19 23:08 | 35.20560 | -80.95130 | 764 ft | 102 kts | 355° |
| 2026-04-19 23:08 | 35.21392 | -80.95201 | 765 ft | 159 kts | 355° |
| 2026-04-19 23:09 | 35.22552 | -80.95303 | 1048 ft | 185 kts | 354° |
| 2026-04-19 23:09 | 35.23743 | -80.95415 | 1998 ft | 180 kts | 354° |
| 2026-04-19 23:09 | 35.24916 | -80.95538 | 2724 ft | 179 kts | 353° |
| 2026-04-19 23:09 | 35.26043 | -80.95971 | 3200 ft | 191 kts | 333° |
| 2026-04-19 23:10 | 35.27034 | -80.97046 | 3579 ft | 212 kts | 306° |
| 2026-04-19 23:10 | 35.27439 | -80.98724 | 3942 ft | 239 kts | 272° |
| 2026-04-19 23:10 | 35.27261 | -81.00639 | 4413 ft | 257 kts | 265° |
| 2026-04-19 23:10 | 35.26994 | -81.02649 | 5114 ft | 263 kts | 265° |
| 2026-04-19 23:11 | 35.26722 | -81.04646 | 5940 ft | 264 kts | 265° |
| 2026-04-19 23:11 | 35.26441 | -81.06705 | 6788 ft | 264 kts | 265° |
| 2026-04-19 23:11 | 35.26157 | -81.08785 | 7615 ft | 265 kts | 265° |
| 2026-04-19 23:11 | 35.25855 | -81.10987 | 8571 ft | 262 kts | 265° |
| 2026-04-19 23:12 | 35.25559 | -81.13150 | 9424 ft | 262 kts | 265° |
| 2026-04-19 23:12 | 35.25265 | -81.15298 | 10208 ft | 264 kts | 265° |
| 2026-04-19 23:12 | 35.24957 | -81.17560 | 10738 ft | 278 kts | 265° |
| 2026-04-19 23:12 | 35.24640 | -81.19888 | 11166 ft | 294 kts | 264° |
| 2026-04-19 23:13 | 35.24314 | -81.22276 | 11658 ft | 308 kts | 263° |
| 2026-04-19 23:13 | 35.23960 | -81.24860 | 12137 ft | 324 kts | 263° |
| 2026-04-19 23:13 | 35.23598 | -81.27490 | 12655 ft | 337 kts | 263° |
| 2026-04-19 23:13 | 35.23206 | -81.30329 | 13181 ft | 352 kts | 262° |
| 2026-04-19 23:14 | 35.22804 | -81.33225 | 13854 ft | 362 kts | 262° |
| 2026-04-19 23:14 | 35.22402 | -81.36108 | 14766 ft | 365 kts | 262° |
| 2026-04-19 23:14 | 35.21987 | -81.39079 | 15847 ft | 366 kts | 262° |
| 2026-04-19 23:14 | 35.21580 | -81.41985 | 16768 ft | 369 kts | 262° |
| 2026-04-19 23:15 | 35.21170 | -81.44913 | 17558 ft | 374 kts | 263° |
| 2026-04-19 23:15 | 35.20746 | -81.47935 | 18338 ft | 380 kts | 262° |
| 2026-04-19 23:15 | 35.20311 | -81.51021 | 19278 ft | 381 kts | 262° |
| 2026-04-19 23:15 | 35.19868 | -81.54156 | 20261 ft | 381 kts | 262° |
| 2026-04-19 23:16 | 35.19429 | -81.57263 | 21176 ft | 382 kts | 262° |
| 2026-04-19 23:16 | 35.18975 | -81.60465 | 21984 ft | 384 kts | 262° |
| 2026-04-19 23:16 | 35.18586 | -81.63696 | 22737 ft | 388 kts | 266° |
| 2026-04-19 23:16 | 35.18473 | -81.67007 | 23473 ft | 391 kts | 268° |
| 2026-04-19 23:17 | 35.18409 | -81.70356 | 24427 ft | 390 kts | 268° |
| 2026-04-19 23:17 | 35.18345 | -81.73664 | 25282 ft | 391 kts | 268° |
| 2026-04-19 23:17 | 35.18279 | -81.76996 | 26000 ft | 394 kts | 267° |
| 2026-04-19 23:17 | 35.18211 | -81.80345 | 26683 ft | 399 kts | 267° |
| 2026-04-19 23:18 | 35.18141 | -81.83705 | 27343 ft | 402 kts | 267° |
| 2026-04-19 23:18 | 35.18068 | -81.87138 | 28072 ft | 404 kts | 266° |
| 2026-04-19 23:18 | 35.17995 | -81.90553 | 28781 ft | 406 kts | 266° |
| 2026-04-19 23:18 | 35.17918 | -81.94037 | 29414 ft | 409 kts | 266° |
| 2026-04-19 23:19 | 35.17842 | -81.97492 | 30194 ft | 409 kts | 266° |
| 2026-04-19 23:19 | 35.17766 | -82.00919 | 31154 ft | 403 kts | 266° |
| 2026-04-19 23:19 | 35.17690 | -82.04276 | 32053 ft | 397 kts | 266° |
| 2026-04-19 23:19 | 35.17612 | -82.07652 | 32827 ft | 394 kts | 266° |
| 2026-04-19 23:20 | 35.17535 | -82.10960 | 33424 ft | 393 kts | 266° |
| 2026-04-19 23:20 | 35.17456 | -82.14309 | 33944 ft | 393 kts | 265° |
| 2026-04-19 23:20 | 35.17383 | -82.17673 | 34420 ft | 393 kts | 266° |
| 2026-04-19 23:20 | 35.17540 | -82.21062 | 34941 ft | 395 kts | 272° |
| 2026-04-19 23:21 | 35.18082 | -82.24645 | 35442 ft | 399 kts | 279° |
| 2026-04-19 23:21 | 35.18903 | -82.28165 | 35882 ft | 400 kts | 281° |
| 2026-04-19 23:21 | 35.19726 | -82.31591 | 36157 ft | 402 kts | 281° |
| 2026-04-19 23:21 | 35.20475 | -82.34722 | 36163 ft | 400 kts | 281° |
| 2026-04-19 23:22 | 35.22107 | -82.41589 | 36167 ft | 397 kts | 280° |
| 2026-04-19 23:22 | 35.23632 | -82.48051 | 36164 ft | 397 kts | 280° |
| 2026-04-19 23:23 | 35.25168 | -82.54594 | 36164 ft | 400 kts | 281° |
| 2026-04-19 23:23 | 35.26693 | -82.61099 | 36170 ft | 397 kts | 280° |
| 2026-04-19 23:24 | 35.28259 | -82.67812 | 36186 ft | 396 kts | 281° |
| 2026-04-19 23:24 | 35.29803 | -82.74443 | 36186 ft | 397 kts | 280° |
| 2026-04-19 23:25 | 35.31390 | -82.81281 | 36180 ft | 398 kts | 280° |
| 2026-04-19 23:25 | 35.32975 | -82.88133 | 36187 ft | 397 kts | 281° |
| 2026-04-19 23:26 | 35.34551 | -82.94961 | 36185 ft | 397 kts | 280° |
| 2026-04-19 23:26 | 35.36040 | -83.01433 | 36205 ft | 398 kts | 281° |
| 2026-04-19 23:27 | 35.37531 | -83.07927 | 36170 ft | 395 kts | 281° |
| 2026-04-19 23:27 | 35.39014 | -83.14407 | 36183 ft | 398 kts | 281° |
| 2026-04-19 23:28 | 35.40498 | -83.20907 | 36176 ft | 396 kts | 281° |
| 2026-04-19 23:28 | 35.41980 | -83.27423 | 36172 ft | 397 kts | 281° |
| 2026-04-19 23:29 | 35.43456 | -83.33950 | 36205 ft | 398 kts | 281° |
| 2026-04-19 23:29 | 35.44939 | -83.40524 | 36177 ft | 396 kts | 281° |
| 2026-04-19 23:30 | 35.46416 | -83.47091 | 36181 ft | 399 kts | 281° |
| 2026-04-19 23:30 | 35.47880 | -83.53613 | 36138 ft | 395 kts | 281° |
| 2026-04-19 23:31 | 35.49360 | -83.60233 | 36188 ft | 400 kts | 281° |
| 2026-04-19 23:31 | 35.50858 | -83.66944 | 36204 ft | 396 kts | 281° |
| 2026-04-19 23:32 | 35.52314 | -83.73490 | 36241 ft | 396 kts | 281° |
| 2026-04-19 23:32 | 35.53764 | -83.80026 | 36140 ft | 396 kts | 281° |
| 2026-04-19 23:33 | 35.55203 | -83.86528 | 36265 ft | 397 kts | 281° |
| 2026-04-19 23:33 | 35.56640 | -83.93044 | 36231 ft | 396 kts | 281° |
| 2026-04-19 23:34 | 35.58088 | -83.99626 | 36192 ft | 397 kts | 281° |
| 2026-04-19 23:34 | 35.59509 | -84.06106 | 36198 ft | 398 kts | 281° |
| 2026-04-19 23:35 | 35.60949 | -84.12686 | 36218 ft | 396 kts | 281° |
| 2026-04-19 23:35 | 35.62331 | -84.19022 | 36238 ft | 396 kts | 281° |
| 2026-04-19 23:36 | 35.63761 | -84.25592 | 36220 ft | 395 kts | 281° |
| 2026-04-19 23:36 | 35.65152 | -84.32008 | 36251 ft | 394 kts | 281° |
| 2026-04-19 23:37 | 35.66568 | -84.38551 | 36224 ft | 394 kts | 281° |
| 2026-04-19 23:37 | 35.67977 | -84.45091 | 36254 ft | 397 kts | 281° |
| 2026-04-19 23:38 | 35.69382 | -84.51619 | 36220 ft | 395 kts | 281° |
| 2026-04-19 23:38 | 35.70786 | -84.58162 | 36231 ft | 396 kts | 281° |
| 2026-04-19 23:39 | 35.72180 | -84.64683 | 36233 ft | 395 kts | 281° |
| 2026-04-19 23:39 | 35.73582 | -84.71258 | 36247 ft | 393 kts | 281° |
| 2026-04-19 23:40 | 35.74942 | -84.77658 | 36262 ft | 395 kts | 281° |
| 2026-04-19 23:40 | 35.76318 | -84.84146 | 36238 ft | 394 kts | 281° |
| 2026-04-19 23:41 | 35.77704 | -84.90702 | 36236 ft | 394 kts | 281° |
| 2026-04-19 23:41 | 35.79075 | -84.97205 | 36261 ft | 394 kts | 281° |
| 2026-04-19 23:42 | 35.80446 | -85.03730 | 36274 ft | 395 kts | 281° |
| 2026-04-19 23:42 | 35.81791 | -85.10146 | 36287 ft | 394 kts | 281° |
| 2026-04-19 23:43 | 35.83159 | -85.16696 | 36263 ft | 395 kts | 281° |
| 2026-04-19 23:43 | 35.84517 | -85.23212 | 36251 ft | 395 kts | 282° |
| 2026-04-19 23:44 | 35.85869 | -85.29728 | 36236 ft | 395 kts | 281° |
| 2026-04-19 23:44 | 35.87220 | -85.36270 | 36249 ft | 396 kts | 281° |
| 2026-04-19 23:45 | 35.88575 | -85.42854 | 36234 ft | 395 kts | 281° |
| 2026-04-19 23:45 | 35.89911 | -85.49366 | 36256 ft | 396 kts | 281° |
| 2026-04-19 23:46 | 35.91262 | -85.55966 | 36264 ft | 395 kts | 282° |
| 2026-04-19 23:46 | 35.92595 | -85.62501 | 36260 ft | 397 kts | 282° |
| 2026-04-19 23:47 | 35.93937 | -85.69098 | 36248 ft | 396 kts | 281° |
| 2026-04-19 23:47 | 35.95274 | -85.75688 | 36273 ft | 397 kts | 281° |
| 2026-04-19 23:48 | 35.96601 | -85.82253 | 36229 ft | 395 kts | 281° |
| 2026-04-19 23:48 | 35.97935 | -85.88874 | 36260 ft | 400 kts | 281° |
| 2026-04-19 23:49 | 35.99269 | -85.95496 | 36259 ft | 395 kts | 281° |
| 2026-04-19 23:49 | 36.00583 | -86.02040 | 36223 ft | 396 kts | 281° |
| 2026-04-19 23:50 | 36.01903 | -86.08633 | 36257 ft | 398 kts | 282° |
| 2026-04-19 23:50 | 36.03217 | -86.15218 | 36257 ft | 398 kts | 282° |
| 2026-04-19 23:51 | 36.04519 | -86.21764 | 36276 ft | 396 kts | 282° |
| 2026-04-19 23:51 | 36.05829 | -86.28370 | 36267 ft | 398 kts | 282° |
| 2026-04-19 23:52 | 36.07126 | -86.34928 | 36274 ft | 398 kts | 282° |
| 2026-04-19 23:52 | 36.08424 | -86.41515 | 36276 ft | 398 kts | 282° |
| 2026-04-19 23:53 | 36.09720 | -86.48113 | 36287 ft | 399 kts | 282° |
| 2026-04-19 23:53 | 36.11026 | -86.54779 | 36275 ft | 399 kts | 282° |
| 2026-04-19 23:54 | 36.12321 | -86.61413 | 36289 ft | 400 kts | 282° |
| 2026-04-19 23:54 | 36.12975 | -86.68147 | 36287 ft | 397 kts | 270° |
| 2026-04-19 23:55 | 36.12278 | -86.74888 | 36284 ft | 402 kts | 259° |
| 2026-04-19 23:55 | 36.10881 | -86.81407 | 36287 ft | 403 kts | 259° |
| 2026-04-19 23:56 | 36.09413 | -86.88168 | 36275 ft | 403 kts | 258° |
| 2026-04-19 23:56 | 36.07953 | -86.94861 | 36260 ft | 402 kts | 259° |
| 2026-04-19 23:57 | 36.06486 | -87.01563 | 36268 ft | 404 kts | 259° |
| 2026-04-19 23:57 | 36.05023 | -87.08221 | 36273 ft | 404 kts | 258° |
| 2026-04-19 23:58 | 36.03581 | -87.14764 | 36273 ft | 402 kts | 259° |
| 2026-04-19 23:58 | 36.02120 | -87.21376 | 36237 ft | 404 kts | 259° |
| 2026-04-19 23:59 | 36.00641 | -87.28049 | 36258 ft | 403 kts | 259° |
| 2026-04-19 23:59 | 35.99167 | -87.34676 | 36256 ft | 401 kts | 259° |
| 2026-04-20 00:00 | 35.97700 | -87.41257 | 36232 ft | 401 kts | 258° |
| 2026-04-20 00:00 | 35.96208 | -87.47932 | 36238 ft | 404 kts | 259° |
| 2026-04-20 00:01 | 35.94720 | -87.54567 | 36259 ft | 402 kts | 259° |
| 2026-04-20 00:02 | 35.92496 | -87.64449 | 36221 ft | 401 kts | 259° |
| 2026-04-20 00:02 | 35.90979 | -87.71172 | 36276 ft | 405 kts | 258° |
| 2026-04-20 00:03 | 35.89483 | -87.77771 | 36256 ft | 398 kts | 258° |
| 2026-04-20 00:03 | 35.87980 | -87.84397 | 36265 ft | 401 kts | 258° |
| 2026-04-20 00:04 | 35.86483 | -87.90969 | 36264 ft | 399 kts | 259° |
| 2026-04-20 00:04 | 35.84991 | -87.97508 | 36259 ft | 401 kts | 258° |
| 2026-04-20 00:05 | 35.83498 | -88.04028 | 36265 ft | 400 kts | 259° |
| 2026-04-20 00:05 | 35.81987 | -88.10607 | 36288 ft | 399 kts | 258° |
| 2026-04-20 00:06 | 35.80490 | -88.17110 | 36289 ft | 401 kts | 259° |
| 2026-04-20 00:06 | 35.78960 | -88.23739 | 36287 ft | 401 kts | 259° |
| 2026-04-20 00:07 | 35.77446 | -88.30275 | 36274 ft | 400 kts | 259° |
| 2026-04-20 00:07 | 35.75913 | -88.36883 | 36259 ft | 402 kts | 259° |
| 2026-04-20 00:08 | 35.74396 | -88.43400 | 36255 ft | 401 kts | 259° |
| 2026-04-20 00:08 | 35.72860 | -88.49981 | 36244 ft | 402 kts | 259° |
| 2026-04-20 00:09 | 35.71310 | -88.56605 | 36239 ft | 403 kts | 259° |
| 2026-04-20 00:09 | 35.69752 | -88.63243 | 36258 ft | 401 kts | 259° |
| 2026-04-20 00:10 | 35.68144 | -88.70078 | 36283 ft | 404 kts | 258° |
| 2026-04-20 00:10 | 35.66528 | -88.76925 | 36296 ft | 402 kts | 258° |
| 2026-04-20 00:11 | 35.64905 | -88.83788 | 36298 ft | 406 kts | 258° |
| 2026-04-20 00:11 | 35.63242 | -88.90789 | 36308 ft | 401 kts | 259° |
| 2026-04-20 00:12 | 35.61591 | -88.97729 | 36293 ft | 401 kts | 259° |
| 2026-04-20 00:12 | 35.59953 | -89.04592 | 36291 ft | 401 kts | 258° |
| 2026-04-20 00:13 | 35.58326 | -89.11391 | 36295 ft | 403 kts | 259° |
| 2026-04-20 00:13 | 35.56710 | -89.18127 | 36279 ft | 403 kts | 259° |
| 2026-04-20 00:14 | 35.55083 | -89.24889 | 36244 ft | 403 kts | 259° |
| 2026-04-20 00:14 | 35.53463 | -89.31603 | 36248 ft | 401 kts | 259° |
| 2026-04-20 00:15 | 35.51857 | -89.38244 | 36236 ft | 402 kts | 259° |
| 2026-04-20 00:15 | 35.50259 | -89.44829 | 36242 ft | 399 kts | 259° |
| 2026-04-20 00:16 | 35.48663 | -89.51394 | 36250 ft | 402 kts | 259° |
| 2026-04-20 00:16 | 35.47065 | -89.57948 | 36242 ft | 401 kts | 259° |
| 2026-04-20 00:17 | 35.45452 | -89.64544 | 36253 ft | 401 kts | 259° |
| 2026-04-20 00:17 | 35.43865 | -89.71019 | 36279 ft | 400 kts | 258° |
| 2026-04-20 00:18 | 35.42294 | -89.77411 | 36274 ft | 401 kts | 258° |
| 2026-04-20 00:18 | 35.41005 | -89.82649 | 36281 ft | 402 kts | 258° |
| 2026-04-20 00:19 | 35.39136 | -89.90214 | 36276 ft | 400 kts | 258° |
| 2026-04-20 00:19 | 35.37520 | -89.96741 | 36277 ft | 401 kts | 258° |
| 2026-04-20 00:20 | 35.35912 | -90.03217 | 36262 ft | 398 kts | 258° |
| 2026-04-20 00:20 | 35.34296 | -90.09712 | 36260 ft | 402 kts | 259° |
| 2026-04-20 00:21 | 35.32661 | -90.16265 | 36280 ft | 402 kts | 259° |
| 2026-04-20 00:21 | 35.31036 | -90.22759 | 36273 ft | 401 kts | 259° |
| 2026-04-20 00:22 | 35.29386 | -90.29336 | 36254 ft | 400 kts | 258° |
| 2026-04-20 00:22 | 35.27771 | -90.35757 | 36272 ft | 399 kts | 259° |
| 2026-04-20 00:23 | 35.26123 | -90.42298 | 36269 ft | 400 kts | 259° |
| 2026-04-20 00:23 | 35.24488 | -90.48768 | 36254 ft | 401 kts | 259° |
| 2026-04-20 00:24 | 35.22826 | -90.55325 | 36253 ft | 399 kts | 259° |
| 2026-04-20 00:24 | 35.21186 | -90.61785 | 36255 ft | 402 kts | 259° |
| 2026-04-20 00:25 | 35.19499 | -90.68411 | 36290 ft | 402 kts | 259° |
| 2026-04-20 00:25 | 35.17836 | -90.74927 | 36301 ft | 402 kts | 258° |
| 2026-04-20 00:26 | 35.16168 | -90.81442 | 36273 ft | 401 kts | 258° |
| 2026-04-20 00:26 | 35.14504 | -90.87928 | 36297 ft | 402 kts | 258° |
| 2026-04-20 00:27 | 35.12820 | -90.94473 | 36292 ft | 400 kts | 258° |
| 2026-04-20 00:27 | 35.11217 | -91.00694 | 36281 ft | 401 kts | 258° |
| 2026-04-20 00:28 | 35.09547 | -91.07157 | 36274 ft | 402 kts | 258° |
| 2026-04-20 00:28 | 35.07864 | -91.13652 | 36272 ft | 402 kts | 258° |
| 2026-04-20 00:29 | 35.06176 | -91.20149 | 36280 ft | 400 kts | 259° |
| 2026-04-20 00:29 | 35.04505 | -91.26566 | 36268 ft | 401 kts | 258° |
| 2026-04-20 00:30 | 35.02821 | -91.33022 | 36269 ft | 401 kts | 258° |
| 2026-04-20 00:30 | 35.01129 | -91.39488 | 36269 ft | 401 kts | 258° |
| 2026-04-20 00:31 | 34.99421 | -91.45998 | 36260 ft | 402 kts | 258° |
| 2026-04-20 00:31 | 34.97726 | -91.52444 | 36262 ft | 402 kts | 258° |
| 2026-04-20 00:32 | 34.96006 | -91.58974 | 36255 ft | 402 kts | 258° |
| 2026-04-20 00:32 | 34.94284 | -91.65487 | 36258 ft | 400 kts | 258° |
| 2026-04-20 00:33 | 34.92489 | -91.72271 | 36271 ft | 405 kts | 258° |
| 2026-04-20 00:33 | 34.90692 | -91.79033 | 36266 ft | 401 kts | 258° |
| 2026-04-20 00:34 | 34.88884 | -91.85827 | 36279 ft | 402 kts | 258° |
| 2026-04-20 00:34 | 34.87018 | -91.92816 | 36286 ft | 402 kts | 258° |
| 2026-04-20 00:35 | 34.85184 | -91.99669 | 36298 ft | 401 kts | 258° |
| 2026-04-20 00:35 | 34.83338 | -92.06554 | 36293 ft | 402 kts | 258° |
| 2026-04-20 00:36 | 34.81657 | -92.13308 | 36286 ft | 398 kts | 263° |
| 2026-04-20 00:36 | 34.81205 | -92.20394 | 36293 ft | 391 kts | 275° |
| 2026-04-20 00:37 | 34.81964 | -92.27592 | 36299 ft | 390 kts | 279° |
| 2026-04-20 00:37 | 34.82715 | -92.34832 | 36271 ft | 390 kts | 278° |
| 2026-04-20 00:38 | 34.83346 | -92.41425 | 36279 ft | 390 kts | 278° |
| 2026-04-20 00:38 | 34.83954 | -92.48041 | 36277 ft | 390 kts | 278° |
| 2026-04-20 00:39 | 34.84540 | -92.54562 | 36272 ft | 390 kts | 278° |
| 2026-04-20 00:39 | 34.85130 | -92.61225 | 36288 ft | 391 kts | 278° |
| 2026-04-20 00:40 | 34.85710 | -92.67836 | 36275 ft | 390 kts | 277° |
| 2026-04-20 00:40 | 34.86290 | -92.74498 | 36259 ft | 391 kts | 277° |
| 2026-04-20 00:41 | 34.86853 | -92.81017 | 36263 ft | 390 kts | 277° |
| 2026-04-20 00:41 | 34.87419 | -92.87615 | 36257 ft | 391 kts | 277° |
| 2026-04-20 00:42 | 34.87966 | -92.94035 | 36259 ft | 391 kts | 277° |
| 2026-04-20 00:42 | 34.88524 | -93.00627 | 36268 ft | 390 kts | 278° |
| 2026-04-20 00:43 | 34.89075 | -93.07180 | 36253 ft | 391 kts | 277° |
| 2026-04-20 00:43 | 34.89631 | -93.13831 | 36253 ft | 392 kts | 277° |
| 2026-04-20 00:44 | 34.90174 | -93.20368 | 36258 ft | 391 kts | 277° |
| 2026-04-20 00:44 | 34.90721 | -93.27001 | 36257 ft | 392 kts | 278° |
| 2026-04-20 00:45 | 34.91256 | -93.33540 | 36247 ft | 391 kts | 277° |
| 2026-04-20 00:45 | 34.91801 | -93.40227 | 36248 ft | 394 kts | 277° |
| 2026-04-20 00:46 | 34.92331 | -93.46797 | 36257 ft | 393 kts | 277° |
| 2026-04-20 00:46 | 34.92870 | -93.53512 | 36238 ft | 392 kts | 278° |
| 2026-04-20 00:47 | 34.93396 | -93.60107 | 36255 ft | 394 kts | 277° |
| 2026-04-20 00:47 | 34.93929 | -93.66842 | 36284 ft | 393 kts | 277° |
| 2026-04-20 00:48 | 34.94449 | -93.73451 | 36283 ft | 395 kts | 277° |
| 2026-04-20 00:48 | 34.94964 | -93.80061 | 36303 ft | 393 kts | 277° |
| 2026-04-20 00:49 | 34.95504 | -93.87022 | 36281 ft | 395 kts | 277° |
| 2026-04-20 00:49 | 34.96023 | -93.93778 | 36287 ft | 395 kts | 277° |
| 2026-04-20 00:50 | 34.96531 | -94.00429 | 36278 ft | 393 kts | 277° |
| 2026-04-20 00:50 | 34.97037 | -94.07104 | 36273 ft | 398 kts | 277° |
| 2026-04-20 00:51 | 34.97537 | -94.13760 | 36269 ft | 394 kts | 277° |
| 2026-04-20 00:51 | 34.98034 | -94.20421 | 36289 ft | 393 kts | 277° |
| 2026-04-20 00:52 | 34.98527 | -94.27066 | 36276 ft | 396 kts | 277° |
| 2026-04-20 00:52 | 34.99019 | -94.33759 | 36277 ft | 396 kts | 277° |
| 2026-04-20 00:53 | 34.99505 | -94.40408 | 36276 ft | 394 kts | 277° |
| 2026-04-20 00:53 | 34.99985 | -94.47034 | 36282 ft | 396 kts | 277° |
| 2026-04-20 00:54 | 35.00468 | -94.53751 | 36262 ft | 396 kts | 277° |
| 2026-04-20 00:54 | 35.00942 | -94.60397 | 36263 ft | 396 kts | 277° |
| 2026-04-20 00:55 | 35.01424 | -94.67207 | 36301 ft | 394 kts | 276° |
| 2026-04-20 00:55 | 35.02229 | -94.73932 | 36280 ft | 396 kts | 281° |
| 2026-04-20 00:56 | 35.03175 | -94.80553 | 36282 ft | 395 kts | 281° |
| 2026-04-20 00:56 | 35.04091 | -94.87138 | 36277 ft | 396 kts | 280° |
| 2026-04-20 00:57 | 35.04999 | -94.93771 | 36258 ft | 396 kts | 281° |
| 2026-04-20 00:57 | 35.05893 | -95.00365 | 36255 ft | 395 kts | 280° |
| 2026-04-20 00:58 | 35.06789 | -95.07027 | 36229 ft | 396 kts | 280° |
| 2026-04-20 00:58 | 35.07666 | -95.13576 | 36246 ft | 397 kts | 281° |
| 2026-04-20 00:59 | 35.08547 | -95.20190 | 36265 ft | 397 kts | 280° |
| 2026-04-20 00:59 | 35.09439 | -95.26912 | 36259 ft | 399 kts | 280° |
| 2026-04-20 01:00 | 35.10344 | -95.33775 | 36259 ft | 397 kts | 280° |
| 2026-04-20 01:00 | 35.11248 | -95.40652 | 36260 ft | 397 kts | 280° |
| 2026-04-20 01:01 | 35.12122 | -95.47334 | 36250 ft | 399 kts | 280° |
| 2026-04-20 01:01 | 35.12939 | -95.54139 | 36259 ft | 399 kts | 279° |
| 2026-04-20 01:02 | 35.13737 | -95.60866 | 36251 ft | 398 kts | 279° |
| 2026-04-20 01:02 | 35.14547 | -95.67705 | 36273 ft | 399 kts | 279° |
| 2026-04-20 01:03 | 35.15342 | -95.74445 | 36269 ft | 399 kts | 279° |
| 2026-04-20 01:03 | 35.16140 | -95.81238 | 36273 ft | 399 kts | 279° |
| 2026-04-20 01:04 | 35.16933 | -95.88015 | 36259 ft | 401 kts | 279° |
| 2026-04-20 01:04 | 35.17720 | -95.94780 | 36260 ft | 399 kts | 279° |
| 2026-04-20 01:05 | 35.18483 | -96.01362 | 36261 ft | 404 kts | 278° |
| 2026-04-20 01:05 | 35.18850 | -96.04544 | 36569 ft | 407 kts | 278° |
| 2026-04-20 01:05 | 35.19243 | -96.07965 | 37291 ft | 401 kts | 279° |
| 2026-04-20 01:05 | 35.19615 | -96.11207 | 37957 ft | 395 kts | 279° |
| 2026-04-20 01:06 | 35.19997 | -96.14540 | 38234 ft | 396 kts | 279° |
| 2026-04-20 01:06 | 35.20770 | -96.21307 | 38260 ft | 395 kts | 278° |
| 2026-04-20 01:07 | 35.21540 | -96.28079 | 38268 ft | 397 kts | 279° |
| 2026-04-20 01:07 | 35.22303 | -96.34824 | 38255 ft | 397 kts | 279° |
| 2026-04-20 01:08 | 35.23057 | -96.41522 | 38278 ft | 396 kts | 279° |
| 2026-04-20 01:08 | 35.23801 | -96.48162 | 38254 ft | 398 kts | 278° |
| 2026-04-20 01:09 | 35.24551 | -96.54891 | 38264 ft | 398 kts | 279° |
| 2026-04-20 01:09 | 35.25306 | -96.61697 | 38254 ft | 397 kts | 279° |
| 2026-04-20 01:10 | 35.26080 | -96.68722 | 38278 ft | 398 kts | 278° |
| 2026-04-20 01:10 | 35.27201 | -96.78951 | 38271 ft | 395 kts | 278° |
| 2026-04-20 01:11 | 35.27942 | -96.85754 | 38278 ft | 398 kts | 278° |
| 2026-04-20 01:11 | 35.28665 | -96.92437 | 38277 ft | 396 kts | 278° |
| 2026-04-20 01:12 | 35.29381 | -96.99085 | 38271 ft | 399 kts | 278° |
| 2026-04-20 01:12 | 35.30087 | -97.05679 | 38250 ft | 399 kts | 278° |
| 2026-04-20 01:13 | 35.30799 | -97.12361 | 38289 ft | 398 kts | 278° |
| 2026-04-20 01:13 | 35.31514 | -97.19103 | 38257 ft | 401 kts | 278° |
| 2026-04-20 01:14 | 35.32219 | -97.25789 | 38259 ft | 397 kts | 278° |
| 2026-04-20 01:14 | 35.32923 | -97.32506 | 38246 ft | 399 kts | 278° |
| 2026-04-20 01:15 | 35.33622 | -97.39210 | 38266 ft | 398 kts | 278° |
| 2026-04-20 01:15 | 35.34322 | -97.45957 | 38250 ft | 400 kts | 278° |
| 2026-04-20 01:16 | 35.35018 | -97.52708 | 38251 ft | 400 kts | 278° |
| 2026-04-20 01:16 | 35.35703 | -97.59450 | 38238 ft | 400 kts | 276° |
| 2026-04-20 01:17 | 35.35779 | -97.66392 | 38257 ft | 404 kts | 270° |
| 2026-04-20 01:17 | 35.35686 | -97.73261 | 38273 ft | 401 kts | 271° |
| 2026-04-20 01:18 | 35.35589 | -97.80122 | 38258 ft | 404 kts | 271° |
| 2026-04-20 01:18 | 35.35486 | -97.86973 | 38256 ft | 400 kts | 271° |
| 2026-04-20 01:19 | 35.35378 | -97.93822 | 38267 ft | 401 kts | 270° |
| 2026-04-20 01:19 | 35.35267 | -98.00693 | 38267 ft | 405 kts | 271° |
| 2026-04-20 01:20 | 35.35152 | -98.07480 | 38267 ft | 401 kts | 271° |
| 2026-04-20 01:20 | 35.35034 | -98.14295 | 38269 ft | 402 kts | 271° |
| 2026-04-20 01:21 | 35.34911 | -98.21144 | 38251 ft | 403 kts | 271° |
| 2026-04-20 01:21 | 35.34786 | -98.27966 | 38255 ft | 404 kts | 270° |
| 2026-04-20 01:22 | 35.34655 | -98.34804 | 38258 ft | 402 kts | 271° |
| 2026-04-20 01:22 | 35.34521 | -98.41613 | 38240 ft | 401 kts | 270° |
| 2026-04-20 01:23 | 35.34383 | -98.48467 | 38241 ft | 403 kts | 270° |
| 2026-04-20 01:23 | 35.34241 | -98.55298 | 38240 ft | 404 kts | 270° |
| 2026-04-20 01:24 | 35.34095 | -98.62160 | 38235 ft | 402 kts | 270° |
| 2026-04-20 01:24 | 35.33944 | -98.69027 | 38242 ft | 406 kts | 270° |
| 2026-04-20 01:25 | 35.33791 | -98.75877 | 38249 ft | 404 kts | 270° |
| 2026-04-20 01:25 | 35.33632 | -98.82739 | 38233 ft | 404 kts | 270° |
| 2026-04-20 01:26 | 35.33470 | -98.89628 | 38224 ft | 405 kts | 270° |
| 2026-04-20 01:26 | 35.33304 | -98.96472 | 38240 ft | 405 kts | 270° |
| 2026-04-20 01:27 | 35.33132 | -99.03391 | 38243 ft | 404 kts | 270° |
| 2026-04-20 01:27 | 35.32960 | -99.10158 | 38249 ft | 407 kts | 270° |
| 2026-04-20 01:28 | 35.32780 | -99.17089 | 38233 ft | 406 kts | 270° |
| 2026-04-20 01:28 | 35.32598 | -99.23955 | 38253 ft | 406 kts | 270° |
| 2026-04-20 01:29 | 35.32410 | -99.30872 | 38226 ft | 406 kts | 269° |
| 2026-04-20 01:29 | 35.32219 | -99.37781 | 38239 ft | 406 kts | 270° |
| 2026-04-20 01:30 | 35.32024 | -99.44703 | 38246 ft | 408 kts | 270° |
| 2026-04-20 01:30 | 35.31825 | -99.51601 | 38216 ft | 406 kts | 270° |
| 2026-04-20 01:31 | 35.31621 | -99.58548 | 38242 ft | 408 kts | 269° |
| 2026-04-20 01:31 | 35.31412 | -99.65524 | 38196 ft | 408 kts | 269° |
| 2026-04-20 01:32 | 35.31195 | -99.72620 | 38245 ft | 407 kts | 269° |
| 2026-04-20 01:32 | 35.30978 | -99.79607 | 38236 ft | 407 kts | 269° |
| 2026-04-20 01:33 | 35.30753 | -99.86726 | 38266 ft | 407 kts | 269° |
| 2026-04-20 01:33 | 35.30526 | -99.93757 | 38220 ft | 409 kts | 269° |
| 2026-04-20 01:34 | 35.30296 | -100.00754 | 38243 ft | 409 kts | 269° |
| 2026-04-20 01:34 | 35.30059 | -100.07828 | 38225 ft | 408 kts | 269° |
| 2026-04-20 01:35 | 35.29818 | -100.14930 | 38214 ft | 410 kts | 269° |
| 2026-04-20 01:35 | 35.29562 | -100.22315 | 38238 ft | 411 kts | 269° |
| 2026-04-20 01:36 | 35.29307 | -100.29536 | 38208 ft | 409 kts | 269° |
| 2026-04-20 01:36 | 35.29058 | -100.36491 | 38248 ft | 409 kts | 268° |
| 2026-04-20 01:37 | 35.28803 | -100.43494 | 38216 ft | 412 kts | 269° |
| 2026-04-20 01:37 | 35.28547 | -100.50429 | 38229 ft | 413 kts | 268° |
| 2026-04-20 01:38 | 35.28286 | -100.57391 | 38233 ft | 410 kts | 268° |
| 2026-04-20 01:38 | 35.28021 | -100.64351 | 38247 ft | 411 kts | 268° |
| 2026-04-20 01:39 | 35.27744 | -100.71483 | 38224 ft | 412 kts | 268° |
| 2026-04-20 01:39 | 35.27461 | -100.78711 | 38237 ft | 414 kts | 268° |
| 2026-04-20 01:40 | 35.27179 | -100.85755 | 38213 ft | 412 kts | 268° |
| 2026-04-20 01:40 | 35.26894 | -100.92818 | 38243 ft | 411 kts | 268° |
| 2026-04-20 01:41 | 35.26607 | -100.99808 | 38243 ft | 413 kts | 268° |
| 2026-04-20 01:41 | 35.26323 | -101.06615 | 38218 ft | 413 kts | 268° |
| 2026-04-20 01:42 | 35.26026 | -101.13670 | 38212 ft | 415 kts | 268° |
| 2026-04-20 01:42 | 35.25730 | -101.20575 | 38222 ft | 414 kts | 268° |
| 2026-04-20 01:43 | 35.25431 | -101.27468 | 38215 ft | 412 kts | 268° |
| 2026-04-20 01:43 | 35.25142 | -101.34075 | 38217 ft | 416 kts | 268° |
| 2026-04-20 01:44 | 35.24829 | -101.41097 | 38225 ft | 415 kts | 268° |
| 2026-04-20 01:44 | 35.24512 | -101.48151 | 38237 ft | 414 kts | 267° |
| 2026-04-20 01:45 | 35.24192 | -101.55164 | 38227 ft | 416 kts | 268° |
| 2026-04-20 01:45 | 35.23866 | -101.62222 | 38211 ft | 415 kts | 268° |
| 2026-04-20 01:46 | 35.23528 | -101.69433 | 38251 ft | 417 kts | 267° |
| 2026-04-20 01:46 | 35.23345 | -101.76325 | 38248 ft | 418 kts | 269° |
| 2026-04-20 01:47 | 35.23211 | -101.83491 | 38248 ft | 417 kts | 269° |
| 2026-04-20 01:47 | 35.23067 | -101.90575 | 38254 ft | 419 kts | 269° |
| 2026-04-20 01:48 | 35.22914 | -101.97718 | 38223 ft | 418 kts | 268° |
| 2026-04-20 01:48 | 35.22755 | -102.04848 | 38229 ft | 419 kts | 269° |
| 2026-04-20 01:49 | 35.22590 | -102.11988 | 38214 ft | 420 kts | 269° |
| 2026-04-20 01:49 | 35.22421 | -102.19133 | 38235 ft | 420 kts | 268° |
| 2026-04-20 01:50 | 35.22248 | -102.26270 | 38228 ft | 421 kts | 268° |
| 2026-04-20 01:50 | 35.22071 | -102.33363 | 38216 ft | 420 kts | 268° |
| 2026-04-20 01:51 | 35.21888 | -102.40514 | 38217 ft | 418 kts | 268° |
| 2026-04-20 01:51 | 35.21703 | -102.47614 | 38234 ft | 419 kts | 268° |
| 2026-04-20 01:52 | 35.21511 | -102.54788 | 38219 ft | 420 kts | 268° |
| 2026-04-20 01:52 | 35.21316 | -102.61935 | 38251 ft | 423 kts | 268° |
| 2026-04-20 01:53 | 35.21115 | -102.69153 | 38247 ft | 422 kts | 268° |
| 2026-04-20 01:53 | 35.20911 | -102.76314 | 38224 ft | 423 kts | 268° |
| 2026-04-20 01:54 | 35.20702 | -102.83523 | 38217 ft | 422 kts | 268° |
| 2026-04-20 01:54 | 35.20489 | -102.90700 | 38248 ft | 425 kts | 268° |
| 2026-04-20 01:55 | 35.20271 | -102.97907 | 38249 ft | 422 kts | 268° |
| 2026-04-20 01:55 | 35.20054 | -103.04930 | 38217 ft | 422 kts | 268° |
| 2026-04-20 01:56 | 35.19830 | -103.12080 | 38253 ft | 422 kts | 268° |
| 2026-04-20 01:56 | 35.19603 | -103.19153 | 38232 ft | 423 kts | 268° |
| 2026-04-20 01:57 | 35.19372 | -103.26260 | 38200 ft | 422 kts | 268° |
| 2026-04-20 01:57 | 35.19132 | -103.33489 | 38229 ft | 425 kts | 268° |
| 2026-04-20 01:58 | 35.18891 | -103.40629 | 38241 ft | 427 kts | 268° |
| 2026-04-20 01:58 | 35.18642 | -103.47881 | 38135 ft | 424 kts | 268° |
| 2026-04-20 01:59 | 35.18391 | -103.55040 | 38160 ft | 425 kts | 268° |
| 2026-04-20 01:59 | 35.18142 | -103.62241 | 38162 ft | 425 kts | 268° |
| 2026-04-20 02:00 | 35.17925 | -103.69500 | 38189 ft | 426 kts | 267° |
| 2026-04-20 02:00 | 35.17704 | -103.76764 | 38178 ft | 425 kts | 267° |
| 2026-04-20 02:01 | 35.17476 | -103.84029 | 38216 ft | 424 kts | 267° |
| 2026-04-20 02:01 | 35.17245 | -103.91264 | 38236 ft | 427 kts | 267° |
| 2026-04-20 02:02 | 35.17010 | -103.98464 | 38206 ft | 425 kts | 267° |
| 2026-04-20 02:02 | 35.16771 | -104.05679 | 38266 ft | 430 kts | 267° |
| 2026-04-20 02:03 | 35.16527 | -104.12907 | 38269 ft | 425 kts | 268° |
| 2026-04-20 02:03 | 35.16279 | -104.20101 | 38259 ft | 428 kts | 268° |
| 2026-04-20 02:04 | 35.16027 | -104.27322 | 38225 ft | 426 kts | 267° |
| 2026-04-20 02:04 | 35.15770 | -104.34530 | 38196 ft | 426 kts | 267° |
| 2026-04-20 02:05 | 35.15508 | -104.41772 | 38286 ft | 429 kts | 267° |
| 2026-04-20 02:05 | 35.15242 | -104.48995 | 38311 ft | 428 kts | 267° |
| 2026-04-20 02:06 | 35.14980 | -104.55998 | 38263 ft | 427 kts | 267° |
| 2026-04-20 02:06 | 35.14843 | -104.59637 | 38159 ft | 429 kts | 267° |
| 2026-04-20 02:06 | 35.14705 | -104.63258 | 38252 ft | 427 kts | 267° |
| 2026-04-20 02:07 | 35.14418 | -104.70695 | 38219 ft | 429 kts | 266° |
| 2026-04-20 02:07 | 35.14132 | -104.77981 | 38252 ft | 428 kts | 267° |
| 2026-04-20 02:08 | 35.13842 | -104.85289 | 38245 ft | 428 kts | 266° |
| 2026-04-20 02:08 | 35.13547 | -104.92577 | 38239 ft | 430 kts | 266° |
| 2026-04-20 02:09 | 35.13248 | -104.99892 | 38301 ft | 430 kts | 266° |
| 2026-04-20 02:09 | 35.12951 | -105.07026 | 38304 ft | 429 kts | 266° |
| 2026-04-20 02:10 | 35.12651 | -105.14149 | 38208 ft | 429 kts | 266° |
| 2026-04-20 02:10 | 35.12338 | -105.21450 | 38291 ft | 428 kts | 266° |
| 2026-04-20 02:11 | 35.12023 | -105.28715 | 38284 ft | 432 kts | 266° |
| 2026-04-20 02:11 | 35.11704 | -105.35972 | 38287 ft | 431 kts | 266° |
| 2026-04-20 02:12 | 35.11379 | -105.43269 | 38280 ft | 430 kts | 266° |
| 2026-04-20 02:12 | 35.11051 | -105.50539 | 38236 ft | 427 kts | 266° |
| 2026-04-20 02:13 | 35.10720 | -105.57772 | 38272 ft | 430 kts | 266° |
| 2026-04-20 02:13 | 35.10384 | -105.65022 | 38260 ft | 430 kts | 265° |
| 2026-04-20 02:14 | 35.10035 | -105.72437 | 38276 ft | 430 kts | 266° |
| 2026-04-20 02:14 | 35.09866 | -105.76002 | 38406 ft | 431 kts | 266° |
| 2026-04-20 02:14 | 35.09694 | -105.79604 | 38147 ft | 432 kts | 265° |
| 2026-04-20 02:15 | 35.09518 | -105.83270 | 38389 ft | 430 kts | 265° |
| 2026-04-20 02:15 | 35.09341 | -105.86944 | 38215 ft | 433 kts | 265° |
| 2026-04-20 02:15 | 35.08986 | -105.94220 | 38364 ft | 431 kts | 266° |
| 2026-04-20 02:16 | 35.08623 | -106.01557 | 38323 ft | 428 kts | 266° |
| 2026-04-20 02:16 | 35.08259 | -106.08838 | 38295 ft | 430 kts | 265° |
| 2026-04-20 02:17 | 35.07888 | -106.16177 | 38254 ft | 434 kts | 265° |
| 2026-04-20 02:17 | 35.07516 | -106.23439 | 38312 ft | 428 kts | 265° |
| 2026-04-20 02:18 | 35.07133 | -106.30843 | 38112 ft | 431 kts | 265° |
| 2026-04-20 02:18 | 35.06746 | -106.38216 | 38182 ft | 431 kts | 265° |
| 2026-04-20 02:19 | 35.06354 | -106.45599 | 38162 ft | 430 kts | 266° |
| 2026-04-20 02:19 | 35.06158 | -106.49270 | 38271 ft | 434 kts | 266° |
| 2026-04-20 02:19 | 35.05959 | -106.52985 | 38151 ft | 434 kts | 265° |
| 2026-04-20 02:20 | 35.05559 | -106.60345 | 38211 ft | 430 kts | 266° |
| 2026-04-20 02:20 | 35.05152 | -106.67770 | 38254 ft | 432 kts | 265° |
| 2026-04-20 02:21 | 35.04744 | -106.75123 | 38131 ft | 430 kts | 265° |
| 2026-04-20 02:21 | 35.04538 | -106.78809 | 38179 ft | 433 kts | 265° |
| 2026-04-20 02:22 | 35.04224 | -106.86105 | 38172 ft | 433 kts | 267° |
| 2026-04-20 02:22 | 35.04069 | -106.93395 | 38186 ft | 435 kts | 267° |
| 2026-04-20 02:23 | 35.03897 | -107.00764 | 38209 ft | 434 kts | 267° |
| 2026-04-20 02:23 | 35.03716 | -107.08074 | 38208 ft | 434 kts | 267° |
| 2026-04-20 02:23 | 35.03622 | -107.11749 | 38365 ft | 434 kts | 267° |
| 2026-04-20 02:24 | 35.03524 | -107.15486 | 38218 ft | 437 kts | 267° |
| 2026-04-20 02:24 | 35.03329 | -107.22847 | 38307 ft | 436 kts | 267° |
| 2026-04-20 02:25 | 35.03126 | -107.30239 | 38285 ft | 435 kts | 267° |
| 2026-04-20 02:25 | 35.02922 | -107.37521 | 38197 ft | 436 kts | 267° |
| 2026-04-20 02:25 | 35.02820 | -107.41121 | 38306 ft | 435 kts | 267° |
| 2026-04-20 02:26 | 35.02713 | -107.44833 | 38316 ft | 438 kts | 267° |
| 2026-04-20 02:26 | 35.02506 | -107.51921 | 38284 ft | 436 kts | 267° |
| 2026-04-20 02:27 | 35.02286 | -107.59302 | 38302 ft | 437 kts | 267° |
| 2026-04-20 02:27 | 35.02065 | -107.66563 | 38337 ft | 434 kts | 266° |
| 2026-04-20 02:28 | 35.01836 | -107.73934 | 38318 ft | 436 kts | 266° |
| 2026-04-20 02:28 | 35.01602 | -107.81313 | 38324 ft | 433 kts | 266° |
| 2026-04-20 02:29 | 35.01366 | -107.88638 | 38280 ft | 434 kts | 266° |
| 2026-04-20 02:29 | 35.01124 | -107.96008 | 38184 ft | 434 kts | 266° |
| 2026-04-20 02:30 | 35.00877 | -108.03374 | 38345 ft | 438 kts | 266° |
| 2026-04-20 02:30 | 35.00753 | -108.07037 | 38224 ft | 437 kts | 266° |
| 2026-04-20 02:30 | 35.00627 | -108.10725 | 38397 ft | 434 kts | 266° |
| 2026-04-20 02:30 | 35.00501 | -108.14381 | 38290 ft | 436 kts | 266° |
| 2026-04-20 02:31 | 35.00372 | -108.18079 | 38341 ft | 436 kts | 266° |
| 2026-04-20 02:31 | 35.00114 | -108.25382 | 38311 ft | 436 kts | 266° |
| 2026-04-20 02:32 | 34.99851 | -108.32735 | 38329 ft | 435 kts | 266° |
| 2026-04-20 02:32 | 34.99583 | -108.40040 | 38299 ft | 439 kts | 266° |
| 2026-04-20 02:33 | 34.99309 | -108.47431 | 38324 ft | 437 kts | 266° |
| 2026-04-20 02:33 | 34.99033 | -108.54762 | 38317 ft | 439 kts | 266° |
| 2026-04-20 02:34 | 34.98750 | -108.62145 | 38278 ft | 437 kts | 266° |
| 2026-04-20 02:34 | 34.98461 | -108.69583 | 38291 ft | 439 kts | 265° |
| 2026-04-20 02:34 | 34.98317 | -108.73241 | 38158 ft | 439 kts | 265° |
| 2026-04-20 02:35 | 34.98170 | -108.76945 | 38163 ft | 438 kts | 265° |
| 2026-04-20 02:35 | 34.97874 | -108.84321 | 38126 ft | 439 kts | 265° |
| 2026-04-20 02:36 | 34.97573 | -108.91714 | 38176 ft | 437 kts | 265° |
| 2026-04-20 02:36 | 34.97271 | -108.99000 | 38108 ft | 435 kts | 265° |
| 2026-04-20 02:37 | 34.96963 | -109.06363 | 38104 ft | 436 kts | 265° |
| 2026-04-20 02:37 | 34.96652 | -109.13650 | 38222 ft | 436 kts | 265° |
| 2026-04-20 02:38 | 34.96243 | -109.20956 | 38265 ft | 434 kts | 264° |
| 2026-04-20 02:38 | 34.95750 | -109.28226 | 38220 ft | 435 kts | 264° |
| 2026-04-20 02:39 | 34.95258 | -109.35505 | 38230 ft | 433 kts | 263° |
| 2026-04-20 02:39 | 34.94767 | -109.42738 | 38197 ft | 433 kts | 264° |
| 2026-04-20 02:40 | 34.94269 | -109.50057 | 38284 ft | 436 kts | 264° |
| 2026-04-20 02:40 | 34.93771 | -109.57317 | 38168 ft | 435 kts | 263° |
| 2026-04-20 02:41 | 34.93268 | -109.64597 | 38242 ft | 436 kts | 263° |
| 2026-04-20 02:41 | 34.92754 | -109.71973 | 38194 ft | 434 kts | 263° |
| 2026-04-20 02:42 | 34.92242 | -109.79257 | 38208 ft | 436 kts | 263° |
| 2026-04-20 02:42 | 34.91727 | -109.86525 | 38213 ft | 434 kts | 263° |
| 2026-04-20 02:43 | 34.91211 | -109.93746 | 38200 ft | 434 kts | 263° |
| 2026-04-20 02:43 | 34.90688 | -110.01003 | 38209 ft | 433 kts | 263° |
| 2026-04-20 02:44 | 34.90163 | -110.08234 | 38205 ft | 433 kts | 263° |
| 2026-04-20 02:44 | 34.89617 | -110.15685 | 38218 ft | 433 kts | 263° |
| 2026-04-20 02:45 | 34.89076 | -110.23000 | 38205 ft | 432 kts | 263° |
| 2026-04-20 02:45 | 34.88537 | -110.30235 | 38205 ft | 433 kts | 263° |
| 2026-04-20 02:46 | 34.87995 | -110.37457 | 38227 ft | 433 kts | 263° |
| 2026-04-20 02:46 | 34.87448 | -110.44679 | 38183 ft | 431 kts | 263° |
| 2026-04-20 02:47 | 34.86899 | -110.51875 | 38184 ft | 434 kts | 262° |
| 2026-04-20 02:47 | 34.86342 | -110.59113 | 38164 ft | 431 kts | 262° |
| 2026-04-20 02:48 | 34.85770 | -110.66481 | 38100 ft | 435 kts | 262° |
| 2026-04-20 02:48 | 34.85194 | -110.73850 | 38123 ft | 435 kts | 262° |
| 2026-04-20 02:49 | 34.84638 | -110.80904 | 38219 ft | 435 kts | 262° |
| 2026-04-20 02:49 | 34.84056 | -110.88231 | 38201 ft | 436 kts | 262° |
| 2026-04-20 02:50 | 34.83480 | -110.95446 | 38214 ft | 433 kts | 262° |
| 2026-04-20 02:50 | 34.82900 | -111.02635 | 38223 ft | 435 kts | 262° |
| 2026-04-20 02:51 | 34.82312 | -111.09875 | 38207 ft | 436 kts | 262° |
| 2026-04-20 02:51 | 34.81719 | -111.17133 | 38245 ft | 435 kts | 262° |
| 2026-04-20 02:52 | 34.81129 | -111.24295 | 38246 ft | 434 kts | 262° |
| 2026-04-20 02:52 | 34.80529 | -111.31519 | 38248 ft | 433 kts | 262° |
| 2026-04-20 02:53 | 34.79926 | -111.38722 | 38231 ft | 434 kts | 262° |
| 2026-04-20 02:53 | 34.79311 | -111.46030 | 38262 ft | 435 kts | 262° |
| 2026-04-20 02:54 | 34.78719 | -111.53008 | 38232 ft | 434 kts | 262° |
| 2026-04-20 02:54 | 34.78117 | -111.60063 | 38129 ft | 436 kts | 262° |
| 2026-04-20 02:55 | 34.77488 | -111.67382 | 38134 ft | 435 kts | 261° |
| 2026-04-20 02:55 | 34.76852 | -111.74722 | 38078 ft | 433 kts | 261° |
| 2026-04-20 02:56 | 34.76218 | -111.81986 | 38066 ft | 435 kts | 261° |
| 2026-04-20 02:56 | 34.75572 | -111.89340 | 38076 ft | 436 kts | 261° |
| 2026-04-20 02:57 | 34.74928 | -111.96625 | 38111 ft | 436 kts | 261° |
| 2026-04-20 02:57 | 34.74279 | -112.03915 | 38094 ft | 434 kts | 262° |
| 2026-04-20 02:58 | 34.73625 | -112.11206 | 38102 ft | 435 kts | 262° |
| 2026-04-20 02:58 | 34.72968 | -112.18484 | 38126 ft | 437 kts | 261° |
| 2026-04-20 02:59 | 34.72303 | -112.25797 | 38091 ft | 436 kts | 261° |
| 2026-04-20 02:59 | 34.71635 | -112.33103 | 38125 ft | 437 kts | 261° |
| 2026-04-20 03:00 | 34.70958 | -112.40449 | 38033 ft | 438 kts | 261° |
| 2026-04-20 03:00 | 34.70276 | -112.47805 | 38116 ft | 439 kts | 262° |
| 2026-04-20 03:01 | 34.69461 | -112.55085 | 38114 ft | 439 kts | 260° |
| 2026-04-20 03:01 | 34.68586 | -112.62456 | 38072 ft | 439 kts | 260° |
| 2026-04-20 03:02 | 34.67739 | -112.69598 | 38126 ft | 438 kts | 259° |
| 2026-04-20 03:02 | 34.66859 | -112.77009 | 38096 ft | 439 kts | 259° |
| 2026-04-20 03:03 | 34.66026 | -112.84007 | 38141 ft | 438 kts | 259° |
| 2026-04-20 03:03 | 34.65232 | -112.90645 | 38142 ft | 440 kts | 259° |
| 2026-04-20 03:04 | 34.64428 | -112.97342 | 38176 ft | 439 kts | 259° |
| 2026-04-20 03:04 | 34.63547 | -113.04645 | 38156 ft | 441 kts | 259° |
| 2026-04-20 03:05 | 34.62667 | -113.11905 | 38117 ft | 441 kts | 259° |
| 2026-04-20 03:05 | 34.61785 | -113.19146 | 38054 ft | 440 kts | 259° |
| 2026-04-20 03:06 | 34.60905 | -113.26334 | 38160 ft | 443 kts | 259° |
| 2026-04-20 03:06 | 34.60453 | -113.30008 | 38005 ft | 442 kts | 259° |
| 2026-04-20 03:06 | 34.60008 | -113.33624 | 38102 ft | 440 kts | 259° |
| 2026-04-20 03:07 | 34.59102 | -113.40946 | 38073 ft | 443 kts | 259° |
| 2026-04-20 03:07 | 34.58188 | -113.48298 | 38053 ft | 442 kts | 259° |
| 2026-04-20 03:08 | 34.57271 | -113.55640 | 38067 ft | 446 kts | 259° |
| 2026-04-20 03:08 | 34.56342 | -113.63033 | 38032 ft | 445 kts | 260° |
| 2026-04-20 03:09 | 34.55492 | -113.70443 | 38042 ft | 446 kts | 260° |
| 2026-04-20 03:09 | 34.54679 | -113.77861 | 37985 ft | 447 kts | 260° |
| 2026-04-20 03:10 | 34.53868 | -113.85181 | 38025 ft | 452 kts | 260° |
| 2026-04-20 03:10 | 34.53040 | -113.92596 | 38020 ft | 448 kts | 260° |
| 2026-04-20 03:11 | 34.52210 | -113.99973 | 37923 ft | 448 kts | 260° |
| 2026-04-20 03:11 | 34.51185 | -114.07419 | 37951 ft | 446 kts | 254° |
| 2026-04-20 03:12 | 34.49653 | -114.14719 | 37958 ft | 450 kts | 254° |
| 2026-04-20 03:12 | 34.48117 | -114.21972 | 37915 ft | 448 kts | 254° |
| 2026-04-20 03:12 | 34.47355 | -114.25561 | 37795 ft | 452 kts | 254° |
| 2026-04-20 03:13 | 34.46579 | -114.29214 | 37834 ft | 448 kts | 254° |
| 2026-04-20 03:13 | 34.45009 | -114.36584 | 37834 ft | 452 kts | 254° |
| 2026-04-20 03:14 | 34.43432 | -114.43965 | 37833 ft | 453 kts | 254° |
| 2026-04-20 03:14 | 34.41855 | -114.51325 | 37852 ft | 453 kts | 254° |
| 2026-04-20 03:15 | 34.40295 | -114.58630 | 37912 ft | 454 kts | 256° |
| 2026-04-20 03:15 | 34.39119 | -114.66123 | 37885 ft | 451 kts | 253° |
| 2026-04-20 03:16 | 34.37417 | -114.73455 | 38007 ft | 452 kts | 253° |
| 2026-04-20 03:16 | 34.35698 | -114.80777 | 37871 ft | 450 kts | 252° |
| 2026-04-20 03:17 | 34.34013 | -114.87931 | 37831 ft | 450 kts | 253° |
| 2026-04-20 03:17 | 34.32278 | -114.95418 | 37911 ft | 456 kts | 254° |
| 2026-04-20 03:18 | 34.30685 | -115.02725 | 37851 ft | 452 kts | 254° |
| 2026-04-20 03:18 | 34.29083 | -115.10040 | 37906 ft | 452 kts | 254° |
| 2026-04-20 03:19 | 34.27457 | -115.17425 | 37869 ft | 452 kts | 253° |
| 2026-04-20 03:19 | 34.25857 | -115.24722 | 37847 ft | 455 kts | 255° |
| 2026-04-20 03:20 | 34.24304 | -115.32044 | 37927 ft | 456 kts | 255° |
| 2026-04-20 03:20 | 34.22786 | -115.39176 | 37888 ft | 454 kts | 255° |
| 2026-04-20 03:21 | 34.21224 | -115.46478 | 37963 ft | 454 kts | 255° |
| 2026-04-20 03:21 | 34.19687 | -115.53638 | 37906 ft | 454 kts | 255° |
| 2026-04-20 03:22 | 34.18109 | -115.60960 | 37895 ft | 453 kts | 255° |
| 2026-04-20 03:22 | 34.16496 | -115.68603 | 37903 ft | 454 kts | 258° |
| 2026-04-20 03:22 | 34.16017 | -115.72612 | 37748 ft | 444 kts | 262° |
| 2026-04-20 03:23 | 34.15662 | -115.76299 | 36976 ft | 447 kts | 262° |
| 2026-04-20 03:23 | 34.15305 | -115.80049 | 36083 ft | 450 kts | 263° |
| 2026-04-20 03:23 | 34.14941 | -115.83845 | 35324 ft | 451 kts | 263° |
| 2026-04-20 03:23 | 34.14578 | -115.87623 | 34644 ft | 451 kts | 263° |
| 2026-04-20 03:24 | 34.14215 | -115.91365 | 33846 ft | 453 kts | 264° |
| 2026-04-20 03:24 | 34.13840 | -115.95222 | 32911 ft | 460 kts | 264° |
| 2026-04-20 03:24 | 34.13454 | -115.99179 | 31987 ft | 478 kts | 264° |
| 2026-04-20 03:24 | 34.13069 | -116.03121 | 31054 ft | 480 kts | 264° |
| 2026-04-20 03:25 | 34.12674 | -116.07149 | 30288 ft | 474 kts | 264° |
| 2026-04-20 03:25 | 34.12294 | -116.11021 | 29904 ft | 459 kts | 264° |
| 2026-04-20 03:25 | 34.11925 | -116.14759 | 29753 ft | 439 kts | 264° |
| 2026-04-20 03:25 | 34.11574 | -116.18300 | 29497 ft | 419 kts | 264° |
| 2026-04-20 03:26 | 34.11232 | -116.21748 | 28800 ft | 411 kts | 264° |
| 2026-04-20 03:26 | 34.10889 | -116.25202 | 27854 ft | 408 kts | 264° |
| 2026-04-20 03:26 | 34.10554 | -116.28558 | 27238 ft | 407 kts | 264° |
| 2026-04-20 03:26 | 34.10212 | -116.31930 | 26611 ft | 403 kts | 263° |
| 2026-04-20 03:27 | 34.09861 | -116.35223 | 26061 ft | 400 kts | 263° |
| 2026-04-20 03:27 | 34.09508 | -116.38513 | 25589 ft | 396 kts | 263° |
| 2026-04-20 03:27 | 34.09167 | -116.41690 | 25105 ft | 393 kts | 263° |
| 2026-04-20 03:27 | 34.08812 | -116.44994 | 24561 ft | 391 kts | 262° |
| 2026-04-20 03:28 | 34.08462 | -116.48241 | 24053 ft | 387 kts | 262° |
| 2026-04-20 03:28 | 34.08127 | -116.51351 | 23935 ft | 381 kts | 262° |
| 2026-04-20 03:28 | 34.07426 | -116.57824 | 23993 ft | 387 kts | 262° |
| 2026-04-20 03:29 | 34.07097 | -116.61008 | 23962 ft | 382 kts | 263° |
| 2026-04-20 03:29 | 34.06809 | -116.64150 | 23533 ft | 378 kts | 263° |
| 2026-04-20 03:29 | 34.06506 | -116.67474 | 22795 ft | 381 kts | 262° |
| 2026-04-20 03:29 | 34.06202 | -116.70786 | 22145 ft | 381 kts | 262° |
| 2026-04-20 03:30 | 34.05905 | -116.73995 | 21670 ft | 379 kts | 262° |
| 2026-04-20 03:30 | 34.05611 | -116.77154 | 21150 ft | 376 kts | 262° |
| 2026-04-20 03:30 | 34.05322 | -116.80254 | 20709 ft | 373 kts | 262° |
| 2026-04-20 03:30 | 34.05033 | -116.83340 | 20127 ft | 371 kts | 262° |
| 2026-04-20 03:31 | 34.04743 | -116.86420 | 19496 ft | 369 kts | 261° |
| 2026-04-20 03:31 | 34.04452 | -116.89499 | 18875 ft | 367 kts | 260° |
| 2026-04-20 03:31 | 34.04079 | -116.92505 | 18248 ft | 365 kts | 258° |
| 2026-04-20 03:31 | 34.03685 | -116.95442 | 17842 ft | 358 kts | 258° |
| 2026-04-20 03:32 | 34.03292 | -116.98399 | 17495 ft | 349 kts | 258° |
| 2026-04-20 03:32 | 34.02921 | -117.01208 | 17084 ft | 344 kts | 258° |
| 2026-04-20 03:32 | 34.02549 | -117.04052 | 17002 ft | 343 kts | 258° |
| 2026-04-20 03:32 | 34.02211 | -117.06879 | 16664 ft | 339 kts | 259° |
| 2026-04-20 03:33 | 34.01881 | -117.09695 | 16052 ft | 343 kts | 259° |
| 2026-04-20 03:33 | 34.01548 | -117.12537 | 15587 ft | 343 kts | 259° |
| 2026-04-20 03:33 | 34.01211 | -117.15383 | 15189 ft | 340 kts | 259° |
| 2026-04-20 03:33 | 34.00884 | -117.18140 | 14991 ft | 335 kts | 259° |
| 2026-04-20 03:34 | 34.00555 | -117.20894 | 14982 ft | 338 kts | 259° |
| 2026-04-20 03:34 | 34.00219 | -117.23707 | 14979 ft | 335 kts | 259° |
| 2026-04-20 03:34 | 33.99888 | -117.26478 | 14682 ft | 330 kts | 259° |
| 2026-04-20 03:34 | 33.99557 | -117.29227 | 14149 ft | 333 kts | 259° |
| 2026-04-20 03:35 | 33.99227 | -117.31981 | 13972 ft | 326 kts | 259° |
| 2026-04-20 03:35 | 33.98908 | -117.34704 | 13516 ft | 327 kts | 259° |
| 2026-04-20 03:35 | 33.98591 | -117.37405 | 12942 ft | 331 kts | 259° |
| 2026-04-20 03:35 | 33.98271 | -117.40132 | 12536 ft | 329 kts | 259° |
| 2026-04-20 03:36 | 33.97959 | -117.42786 | 12186 ft | 326 kts | 259° |
| 2026-04-20 03:36 | 33.97647 | -117.45432 | 11999 ft | 322 kts | 259° |
| 2026-04-20 03:36 | 33.97369 | -117.48076 | 11966 ft | 325 kts | 266° |
| 2026-04-20 03:36 | 33.97579 | -117.50742 | 11902 ft | 332 kts | 277° |
| 2026-04-20 03:37 | 33.98025 | -117.53412 | 11571 ft | 331 kts | 280° |
| 2026-04-20 03:37 | 33.98523 | -117.56138 | 11183 ft | 326 kts | 280° |
| 2026-04-20 03:37 | 33.98986 | -117.58696 | 10927 ft | 310 kts | 280° |
| 2026-04-20 03:37 | 33.99428 | -117.61169 | 10741 ft | 306 kts | 279° |
| 2026-04-20 03:38 | 33.99870 | -117.63669 | 10467 ft | 303 kts | 279° |
| 2026-04-20 03:38 | 34.00007 | -117.66120 | 10199 ft | 296 kts | 260° |
| 2026-04-20 03:38 | 33.99713 | -117.68559 | 9967 ft | 295 kts | 258° |
| 2026-04-20 03:38 | 33.99393 | -117.71003 | 9623 ft | 296 kts | 258° |
| 2026-04-20 03:39 | 33.99108 | -117.73445 | 9254 ft | 296 kts | 265° |
| 2026-04-20 03:39 | 33.99131 | -117.75907 | 8962 ft | 294 kts | 269° |
| 2026-04-20 03:39 | 33.99220 | -117.78370 | 8624 ft | 293 kts | 270° |
| 2026-04-20 03:39 | 33.99312 | -117.80800 | 8270 ft | 292 kts | 270° |
| 2026-04-20 03:40 | 33.99240 | -117.83227 | 7917 ft | 289 kts | 262° |
| 2026-04-20 03:40 | 33.99026 | -117.85492 | 7595 ft | 288 kts | 260° |
| 2026-04-20 03:40 | 33.98789 | -117.87833 | 7252 ft | 288 kts | 260° |
| 2026-04-20 03:40 | 33.98546 | -117.90043 | 6929 ft | 287 kts | 259° |
| 2026-04-20 03:41 | 33.98286 | -117.92350 | 6678 ft | 284 kts | 260° |
| 2026-04-20 03:41 | 33.98030 | -117.94665 | 6398 ft | 282 kts | 259° |
| 2026-04-20 03:41 | 33.97769 | -117.97021 | 6148 ft | 284 kts | 260° |
| 2026-04-20 03:41 | 33.97514 | -117.99353 | 5895 ft | 282 kts | 260° |
| 2026-04-20 03:42 | 33.97266 | -118.01647 | 5633 ft | 280 kts | 260° |
| 2026-04-20 03:42 | 33.97024 | -118.03944 | 5377 ft | 277 kts | 261° |
| 2026-04-20 03:42 | 33.96808 | -118.06104 | 5070 ft | 269 kts | 261° |
| 2026-04-20 03:42 | 33.96620 | -118.08189 | 4956 ft | 253 kts | 263° |
| 2026-04-20 03:43 | 33.96462 | -118.10191 | 4676 ft | 245 kts | 263° |
| 2026-04-20 03:43 | 33.96318 | -118.12064 | 4393 ft | 224 kts | 264° |
| 2026-04-20 03:43 | 33.96183 | -118.13850 | 4126 ft | 205 kts | 264° |
| 2026-04-20 03:43 | 33.96051 | -118.15403 | 3903 ft | 195 kts | 263° |
| 2026-04-20 03:44 | 33.95906 | -118.16930 | 3665 ft | 194 kts | 263° |
| 2026-04-20 03:44 | 33.95757 | -118.18433 | 3417 ft | 180 kts | 263° |
| 2026-04-20 03:44 | 33.95618 | -118.19823 | 3199 ft | 168 kts | 263° |
| 2026-04-20 03:44 | 33.95487 | -118.21131 | 2990 ft | 162 kts | 263° |
| 2026-04-20 03:45 | 33.95363 | -118.22364 | 2791 ft | 162 kts | 263° |
| 2026-04-20 03:45 | 33.95234 | -118.23624 | 2580 ft | 160 kts | 263° |
| 2026-04-20 03:45 | 33.95106 | -118.24871 | 2375 ft | 157 kts | 262° |
| 2026-04-20 03:45 | 33.94979 | -118.26121 | 2169 ft | 156 kts | 262° |
| 2026-04-20 03:46 | 33.94851 | -118.27375 | 1960 ft | 155 kts | 262° |
| 2026-04-20 03:46 | 33.94722 | -118.28649 | 1744 ft | 153 kts | 263° |
| 2026-04-20 03:46 | 33.94597 | -118.29871 | 1540 ft | 154 kts | 263° |
| 2026-04-20 03:46 | 33.94467 | -118.31141 | 1329 ft | 157 kts | 262° |
| 2026-04-20 03:47 | 33.94340 | -118.32386 | 1117 ft | 154 kts | 262° |
| 2026-04-20 03:47 | 33.94211 | -118.33626 | 905 ft | 151 kts | 262° |
| 2026-04-20 03:47 | 33.94082 | -118.34850 | 689 ft | 148 kts | 263° |
| 2026-04-20 03:47 | 33.93965 | -118.36067 | 504 ft | 144 kts | 262° |
| 2026-04-20 03:48 | 33.93839 | -118.37258 | 295 ft | 142 kts | 263° |
| 2026-04-20 03:48 | 33.93721 | -118.38417 | 129 ft | 138 kts | 263° |
| 2026-04-20 03:48 | 33.93616 | -118.39470 | 120 ft | 108 kts | 263° |
| 2026-04-20 03:48 | 33.93538 | -118.40226 | 132 ft | 72 kts | 263° |
| 2026-04-20 03:49 | 33.93491 | -118.40670 | 139 ft | 34 kts | 263° |
| 2026-04-20 03:49 | 33.93480 | -118.40911 | 141 ft | 14 kts | 278° |
| 2026-04-20 03:49 | 33.93494 | -118.41026 | 141 ft | 13 kts | 284° |
| 2026-04-20 03:49 | 33.93517 | -118.41113 | 141 ft | 11 kts | 294° |
| 2026-04-20 03:50 | 33.93549 | -118.41199 | 140 ft | 11 kts | 297° |
| 2026-04-20 03:50 | 33.93602 | -118.41254 | 140 ft | 11 kts | 347° |
| 2026-04-20 03:50 | 33.93672 | -118.41268 | 141 ft | 10 kts | 351° |
| 2026-04-20 03:50 | 33.93728 | -118.41271 | 140 ft | 6 kts | 21° |
| 2026-04-20 03:51 | 33.93750 | -118.41235 | 140 ft | 0 kts | 81° |
| 2026-04-20 03:53 | 33.93751 | -118.41228 | 140 ft | 2 kts | 81° |
| 2026-04-20 03:53 | 33.93755 | -118.41200 | 141 ft | 5 kts | 81° |
| 2026-04-20 03:54 | 33.93774 | -118.41151 | 141 ft | 8 kts | 28° |
| 2026-04-20 03:54 | 33.93839 | -118.41157 | 141 ft | 11 kts | 350° |
| 2026-04-20 03:54 | 33.93907 | -118.41168 | 139 ft | 6 kts | 353° |
| 2026-04-20 03:54 | 33.93938 | -118.41151 | 138 ft | 3 kts | 78° |
| 2026-04-20 03:55 | 33.93939 | -118.41117 | 139 ft | 4 kts | 91° |
| 2026-04-20 03:55 | 33.93940 | -118.41096 | 139 ft | 2 kts | 85° |
| 2026-04-20 03:55 | 33.93942 | -118.41076 | 140 ft | 1 kts | 84° |
| 2026-04-20 03:55 | 33.93943 | -118.41069 | 140 ft | 0 kts | 84° |
| 2026-04-20 03:56 | 33.93943 | -118.41065 | 140 ft | 0 kts | 84° |
| 2026-04-20 03:56 | 33.93943 | -118.41064 | 140 ft | 0 kts | 84° |